FDX497 FZAA-GOBD
Flight info
| Callsign | FDX497 |
|---|---|
| Flight time | N/A |
| Altitude | 32000 |
| Route | BZ4A BZ UG856 LV UR979 KOPOX/N0495F340 UR979 ERIDI ERIDI1A |
| Aircraft | B77L/H-SDE1E2E3FGHIJ2J3J4J5M1RWXY/LB1D1 |
Departure
| Time | 2026-04-17 22:34 |
|---|---|
| Airport | Ndjili International Airport (FZAA) |
Arrival
| Time | N/A |
|---|---|
| Airport | Blaise Diagne International Airport (GOBD) |
| Time | Latitude | Longitude | Altitude | Speed | Heading |
|---|---|---|---|---|---|
| 2026-04-17 22:28 | -4.38675 | 15.44639 | 1038 ft | 0 kts | 236° |
| 2026-04-17 22:28 | -4.38680 | 15.44631 | 1038 ft | 2 kts | 238° |
| 2026-04-17 22:29 | -4.38699 | 15.44598 | 1038 ft | 8 kts | 240° |
| 2026-04-17 22:29 | -4.38690 | 15.44535 | 1038 ft | 12 kts | 316° |
| 2026-04-17 22:29 | -4.38615 | 15.44479 | 1038 ft | 11 kts | 326° |
| 2026-04-17 22:29 | -4.38534 | 15.44501 | 1038 ft | 17 kts | 52° |
| 2026-04-17 22:30 | -4.38452 | 15.44621 | 1038 ft | 24 kts | 57° |
| 2026-04-17 22:30 | -4.38348 | 15.44786 | 1038 ft | 31 kts | 58° |
| 2026-04-17 22:30 | -4.38218 | 15.44985 | 1037 ft | 35 kts | 57° |
| 2026-04-17 22:30 | -4.38087 | 15.45182 | 1037 ft | 32 kts | 57° |
| 2026-04-17 22:31 | -4.37971 | 15.45362 | 1037 ft | 29 kts | 57° |
| 2026-04-17 22:31 | -4.37868 | 15.45524 | 1037 ft | 25 kts | 57° |
| 2026-04-17 22:31 | -4.37825 | 15.45635 | 1037 ft | 15 kts | 83° |
| 2026-04-17 22:31 | -4.37801 | 15.45722 | 1037 ft | 8 kts | 56° |
| 2026-04-17 22:32 | -4.37757 | 15.45737 | 1037 ft | 6 kts | 335° |
| 2026-04-17 22:32 | -4.37748 | 15.45709 | 1037 ft | 4 kts | 246° |
| 2026-04-17 22:32 | -4.37771 | 15.45671 | 1037 ft | 10 kts | 236° |
| 2026-04-17 22:32 | -4.37828 | 15.45586 | 1037 ft | 18 kts | 236° |
| 2026-04-17 22:33 | -4.37940 | 15.45415 | 1037 ft | 53 kts | 237° |
| 2026-04-17 22:33 | -4.38263 | 15.44917 | 1038 ft | 116 kts | 237° |
| 2026-04-17 22:33 | -4.38823 | 15.44058 | 1039 ft | 174 kts | 237° |
| 2026-04-17 22:33 | -4.39535 | 15.42966 | 1397 ft | 190 kts | 237° |
| 2026-04-17 22:34 | -4.40281 | 15.41849 | 1974 ft | 198 kts | 236° |
| 2026-04-17 22:34 | -4.41031 | 15.40679 | 2495 ft | 201 kts | 238° |
| 2026-04-17 22:34 | -4.41803 | 15.39462 | 2768 ft | 213 kts | 237° |
| 2026-04-17 22:34 | -4.42633 | 15.38173 | 2987 ft | 229 kts | 237° |
| 2026-04-17 22:35 | -4.43553 | 15.36766 | 3261 ft | 246 kts | 237° |
| 2026-04-17 22:35 | -4.44530 | 15.35274 | 3543 ft | 263 kts | 237° |
| 2026-04-17 22:35 | -4.45545 | 15.33720 | 3968 ft | 272 kts | 237° |
| 2026-04-17 22:35 | -4.46587 | 15.32119 | 4551 ft | 276 kts | 237° |
| 2026-04-17 22:36 | -4.47641 | 15.30502 | 5166 ft | 277 kts | 237° |
| 2026-04-17 22:36 | -4.48695 | 15.28884 | 5751 ft | 278 kts | 237° |
| 2026-04-17 22:36 | -4.49763 | 15.27244 | 6246 ft | 282 kts | 237° |
| 2026-04-17 22:36 | -4.50840 | 15.25591 | 6747 ft | 285 kts | 237° |
| 2026-04-17 22:37 | -4.51731 | 15.23819 | 7193 ft | 288 kts | 257° |
| 2026-04-17 22:37 | -4.51773 | 15.21843 | 7715 ft | 289 kts | 285° |
| 2026-04-17 22:37 | -4.50883 | 15.20058 | 8344 ft | 287 kts | 313° |
| 2026-04-17 22:37 | -4.49438 | 15.18680 | 9013 ft | 286 kts | 319° |
| 2026-04-17 22:38 | -4.47934 | 15.17376 | 9694 ft | 286 kts | 319° |
| 2026-04-17 22:38 | -4.46431 | 15.16078 | 10213 ft | 289 kts | 319° |
| 2026-04-17 22:38 | -4.44861 | 15.14732 | 10406 ft | 304 kts | 322° |
| 2026-04-17 22:38 | -4.42952 | 15.13706 | 10541 ft | 321 kts | 344° |
| 2026-04-17 22:39 | -4.40684 | 15.13498 | 10687 ft | 337 kts | 8° |
| 2026-04-17 22:39 | -4.38396 | 15.14220 | 10749 ft | 352 kts | 27° |
| 2026-04-17 22:39 | -4.33824 | 15.16538 | 11182 ft | 376 kts | 27° |
| 2026-04-17 22:40 | -4.31491 | 15.17690 | 11688 ft | 378 kts | 25° |
| 2026-04-17 22:40 | -4.28985 | 15.18552 | 12294 ft | 382 kts | 14° |
| 2026-04-17 22:40 | -4.26323 | 15.18936 | 12829 ft | 389 kts | 4° |
| 2026-04-17 22:40 | -4.23599 | 15.18798 | 13387 ft | 395 kts | 352° |
| 2026-04-17 22:41 | -4.20911 | 15.18118 | 13975 ft | 401 kts | 341° |
| 2026-04-17 22:41 | -4.18371 | 15.16897 | 14611 ft | 407 kts | 329° |
| 2026-04-17 22:41 | -4.16108 | 15.15173 | 15270 ft | 412 kts | 317° |
| 2026-04-17 22:41 | -4.14170 | 15.13019 | 15931 ft | 416 kts | 310° |
| 2026-04-17 22:42 | -4.12345 | 15.10757 | 16568 ft | 420 kts | 309° |
| 2026-04-17 22:42 | -4.10509 | 15.08471 | 17180 ft | 424 kts | 309° |
| 2026-04-17 22:42 | -4.08660 | 15.06170 | 17769 ft | 427 kts | 309° |
| 2026-04-17 22:42 | -4.06795 | 15.03847 | 18360 ft | 431 kts | 309° |
| 2026-04-17 22:43 | -4.04907 | 15.01496 | 18938 ft | 434 kts | 309° |
| 2026-04-17 22:43 | -4.03008 | 14.99133 | 19497 ft | 438 kts | 309° |
| 2026-04-17 22:43 | -4.01093 | 14.96748 | 20047 ft | 441 kts | 309° |
| 2026-04-17 22:43 | -3.99168 | 14.94352 | 20571 ft | 444 kts | 309° |
| 2026-04-17 22:44 | -3.97222 | 14.91931 | 21092 ft | 447 kts | 310° |
| 2026-04-17 22:44 | -3.95287 | 14.89522 | 21596 ft | 450 kts | 309° |
| 2026-04-17 22:44 | -3.93317 | 14.87070 | 22070 ft | 453 kts | 310° |
| 2026-04-17 22:44 | -3.91335 | 14.84604 | 22530 ft | 457 kts | 310° |
| 2026-04-17 22:45 | -3.89319 | 14.82095 | 22961 ft | 462 kts | 310° |
| 2026-04-17 22:45 | -3.87294 | 14.79575 | 23405 ft | 465 kts | 309° |
| 2026-04-17 22:45 | -3.85253 | 14.77036 | 23860 ft | 469 kts | 310° |
| 2026-04-17 22:45 | -3.83202 | 14.74484 | 24311 ft | 472 kts | 310° |
| 2026-04-17 22:46 | -3.81133 | 14.71911 | 24750 ft | 476 kts | 309° |
| 2026-04-17 22:46 | -3.79051 | 14.69320 | 25207 ft | 479 kts | 309° |
| 2026-04-17 22:46 | -3.76958 | 14.66718 | 25663 ft | 483 kts | 310° |
| 2026-04-17 22:46 | -3.74843 | 14.64087 | 26092 ft | 487 kts | 309° |
| 2026-04-17 22:47 | -3.72710 | 14.61434 | 26522 ft | 491 kts | 309° |
| 2026-04-17 22:47 | -3.70565 | 14.58766 | 26966 ft | 494 kts | 309° |
| 2026-04-17 22:47 | -3.68400 | 14.56074 | 27403 ft | 498 kts | 309° |
| 2026-04-17 22:47 | -3.66221 | 14.53366 | 27846 ft | 502 kts | 309° |
| 2026-04-17 22:48 | -3.64027 | 14.50638 | 28289 ft | 505 kts | 309° |
| 2026-04-17 22:48 | -3.61791 | 14.47858 | 28688 ft | 510 kts | 309° |
| 2026-04-17 22:48 | -3.59570 | 14.45098 | 29150 ft | 512 kts | 309° |
| 2026-04-17 22:48 | -3.57333 | 14.42316 | 29776 ft | 511 kts | 309° |
| 2026-04-17 22:49 | -3.55114 | 14.39558 | 30551 ft | 506 kts | 309° |
| 2026-04-17 22:49 | -3.52922 | 14.36833 | 31362 ft | 500 kts | 309° |
| 2026-04-17 22:49 | -3.50739 | 14.34121 | 31838 ft | 502 kts | 309° |
| 2026-04-17 22:49 | -3.48562 | 14.31415 | 31893 ft | 503 kts | 309° |
| 2026-04-17 22:50 | -3.44205 | 14.26000 | 31905 ft | 497 kts | 309° |
| 2026-04-17 22:50 | -3.39863 | 14.20607 | 31909 ft | 499 kts | 309° |
| 2026-04-17 22:51 | -3.35513 | 14.15203 | 31919 ft | 498 kts | 309° |
| 2026-04-17 22:51 | -3.31177 | 14.09817 | 31918 ft | 498 kts | 309° |
| 2026-04-17 22:52 | -3.26815 | 14.04399 | 31920 ft | 498 kts | 309° |
| 2026-04-17 22:52 | -3.22467 | 13.99000 | 31912 ft | 498 kts | 308° |
| 2026-04-17 22:53 | -3.18160 | 13.93649 | 31921 ft | 497 kts | 308° |
| 2026-04-17 22:53 | -3.13818 | 13.88252 | 31921 ft | 497 kts | 308° |
| 2026-04-17 22:54 | -3.09471 | 13.82850 | 31921 ft | 497 kts | 308° |
| 2026-04-17 22:54 | -3.05152 | 13.77483 | 31919 ft | 497 kts | 309° |
| 2026-04-17 22:55 | -3.00806 | 13.72089 | 31923 ft | 498 kts | 309° |
| 2026-04-17 22:55 | -2.96463 | 13.66698 | 31922 ft | 498 kts | 309° |
| 2026-04-17 22:56 | -2.92105 | 13.61290 | 31924 ft | 497 kts | 308° |
| 2026-04-17 22:56 | -2.87744 | 13.55874 | 31912 ft | 498 kts | 308° |
| 2026-04-17 22:57 | -2.83433 | 13.50520 | 31914 ft | 497 kts | 308° |
| 2026-04-17 22:57 | -2.79082 | 13.45119 | 31917 ft | 498 kts | 309° |
| 2026-04-17 22:58 | -2.74716 | 13.39708 | 31917 ft | 497 kts | 309° |
| 2026-04-17 22:58 | -2.70359 | 13.34309 | 31913 ft | 499 kts | 309° |
| 2026-04-17 22:59 | -2.66026 | 13.28940 | 31914 ft | 499 kts | 309° |
| 2026-04-17 22:59 | -2.61659 | 13.23528 | 31910 ft | 498 kts | 308° |
| 2026-04-17 23:00 | -2.57315 | 13.18145 | 31905 ft | 499 kts | 309° |
| 2026-04-17 23:00 | -2.52952 | 13.12743 | 31909 ft | 499 kts | 309° |
| 2026-04-17 23:01 | -2.48585 | 13.07339 | 31915 ft | 499 kts | 308° |
| 2026-04-17 23:01 | -2.44204 | 13.01935 | 31913 ft | 500 kts | 308° |
| 2026-04-17 23:02 | -2.39843 | 12.96509 | 31914 ft | 499 kts | 308° |
| 2026-04-17 23:02 | -2.35474 | 12.91079 | 31917 ft | 499 kts | 308° |
| 2026-04-17 23:03 | -2.31142 | 12.85698 | 31920 ft | 500 kts | 308° |
| 2026-04-17 23:03 | -2.26788 | 12.80295 | 31923 ft | 499 kts | 308° |
| 2026-04-17 23:04 | -2.22410 | 12.74863 | 31926 ft | 500 kts | 308° |
| 2026-04-17 23:04 | -2.18062 | 12.69470 | 31933 ft | 500 kts | 308° |
| 2026-04-17 23:05 | -2.13679 | 12.64034 | 31945 ft | 499 kts | 308° |
| 2026-04-17 23:05 | -2.09352 | 12.58669 | 31956 ft | 499 kts | 308° |
| 2026-04-17 23:06 | -2.04990 | 12.53261 | 31966 ft | 500 kts | 308° |
| 2026-04-17 23:06 | -2.00627 | 12.47852 | 31976 ft | 500 kts | 308° |
| 2026-04-17 23:07 | -1.96238 | 12.42415 | 31968 ft | 500 kts | 308° |
| 2026-04-17 23:07 | -1.91902 | 12.37046 | 31961 ft | 499 kts | 308° |
| 2026-04-17 23:08 | -1.87515 | 12.31613 | 31952 ft | 498 kts | 308° |
| 2026-04-17 23:08 | -1.83161 | 12.26218 | 31947 ft | 499 kts | 308° |
| 2026-04-17 23:09 | -1.78830 | 12.20852 | 31953 ft | 500 kts | 308° |
| 2026-04-17 23:09 | -1.74445 | 12.15420 | 31958 ft | 500 kts | 308° |
| 2026-04-17 23:10 | -1.70068 | 12.09998 | 31963 ft | 500 kts | 308° |
| 2026-04-17 23:10 | -1.65706 | 12.04595 | 31965 ft | 500 kts | 308° |
| 2026-04-17 23:11 | -1.61338 | 11.99185 | 31969 ft | 498 kts | 308° |
| 2026-04-17 23:11 | -1.56989 | 11.93799 | 31950 ft | 500 kts | 308° |
| 2026-04-17 23:12 | -1.52633 | 11.88405 | 31934 ft | 501 kts | 308° |
| 2026-04-17 23:12 | -1.48235 | 11.82959 | 31930 ft | 501 kts | 308° |
| 2026-04-17 23:13 | -1.43878 | 11.77564 | 31921 ft | 502 kts | 308° |
| 2026-04-17 23:13 | -1.39492 | 11.72134 | 31913 ft | 501 kts | 308° |
| 2026-04-17 23:14 | -1.35122 | 11.66724 | 31899 ft | 501 kts | 308° |
| 2026-04-17 23:14 | -1.30753 | 11.61315 | 31886 ft | 500 kts | 308° |
| 2026-04-17 23:15 | -1.26393 | 11.55918 | 31877 ft | 501 kts | 308° |
| 2026-04-17 23:15 | -1.22001 | 11.50481 | 31869 ft | 501 kts | 308° |
| 2026-04-17 23:16 | -1.17639 | 11.45083 | 31868 ft | 500 kts | 308° |
| 2026-04-17 23:16 | -1.13249 | 11.39650 | 31866 ft | 501 kts | 308° |
| 2026-04-17 23:17 | -1.08892 | 11.34257 | 31861 ft | 501 kts | 308° |
| 2026-04-17 23:17 | -1.04506 | 11.28829 | 31857 ft | 500 kts | 308° |
| 2026-04-17 23:18 | -1.00119 | 11.23400 | 31851 ft | 500 kts | 308° |
| 2026-04-17 23:18 | -0.95767 | 11.18015 | 31857 ft | 499 kts | 308° |
| 2026-04-17 23:19 | -0.91390 | 11.12600 | 31861 ft | 499 kts | 308° |
| 2026-04-17 23:19 | -0.87030 | 11.07206 | 31859 ft | 501 kts | 308° |
| 2026-04-17 23:20 | -0.82647 | 11.01782 | 31856 ft | 500 kts | 308° |
| 2026-04-17 23:20 | -0.78289 | 10.96391 | 31854 ft | 500 kts | 308° |
| 2026-04-17 23:21 | -0.73928 | 10.90995 | 31849 ft | 499 kts | 308° |
| 2026-04-17 23:21 | -0.69578 | 10.85614 | 31846 ft | 498 kts | 308° |
| 2026-04-17 23:22 | -0.65226 | 10.80229 | 31842 ft | 499 kts | 308° |
| 2026-04-17 23:22 | -0.60880 | 10.74853 | 31837 ft | 498 kts | 308° |
| 2026-04-17 23:23 | -0.56520 | 10.69459 | 31831 ft | 499 kts | 308° |
| 2026-04-17 23:23 | -0.52160 | 10.64065 | 31830 ft | 498 kts | 308° |
| 2026-04-17 23:24 | -0.47804 | 10.58675 | 31827 ft | 497 kts | 308° |
| 2026-04-17 23:24 | -0.43472 | 10.53317 | 31824 ft | 498 kts | 308° |
| 2026-04-17 23:25 | -0.39116 | 10.47929 | 31821 ft | 498 kts | 308° |
| 2026-04-17 23:25 | -0.34779 | 10.42564 | 31819 ft | 498 kts | 308° |
| 2026-04-17 23:26 | -0.30410 | 10.37160 | 31818 ft | 497 kts | 308° |
| 2026-04-17 23:26 | -0.26088 | 10.31814 | 31819 ft | 497 kts | 308° |
| 2026-04-17 23:27 | -0.21733 | 10.26428 | 31820 ft | 496 kts | 307° |
| 2026-04-17 23:27 | -0.17411 | 10.21081 | 31821 ft | 496 kts | 307° |
| 2026-04-17 23:28 | -0.13056 | 10.15695 | 31821 ft | 496 kts | 307° |
| 2026-04-17 23:28 | -0.08728 | 10.10342 | 31820 ft | 498 kts | 307° |
| 2026-04-17 23:29 | -0.04367 | 10.04948 | 31820 ft | 498 kts | 307° |
| 2026-04-17 23:29 | -0.00006 | 9.99554 | 31821 ft | 496 kts | 307° |
| 2026-04-17 23:30 | 0.04302 | 9.94225 | 31820 ft | 496 kts | 307° |
| 2026-04-17 23:30 | 0.08649 | 9.88849 | 31819 ft | 496 kts | 307° |
| 2026-04-17 23:31 | 0.12999 | 9.83467 | 31812 ft | 496 kts | 307° |
| 2026-04-17 23:31 | 0.17318 | 9.78125 | 31814 ft | 497 kts | 307° |
| 2026-04-17 23:32 | 0.21665 | 9.72749 | 31808 ft | 497 kts | 307° |
| 2026-04-17 23:32 | 0.26021 | 9.67360 | 31803 ft | 497 kts | 307° |
| 2026-04-17 23:33 | 0.30357 | 9.61997 | 31798 ft | 497 kts | 307° |
| 2026-04-17 23:33 | 0.34679 | 9.56651 | 31799 ft | 496 kts | 307° |
| 2026-04-17 23:34 | 0.39007 | 9.51298 | 31802 ft | 495 kts | 307° |
| 2026-04-17 23:34 | 0.43349 | 9.45927 | 31805 ft | 495 kts | 307° |
| 2026-04-17 23:35 | 0.47465 | 9.40430 | 31808 ft | 493 kts | 298° |
| 2026-04-17 23:35 | 0.50181 | 9.34163 | 31805 ft | 492 kts | 289° |
| 2026-04-17 23:36 | 0.52525 | 9.27772 | 31800 ft | 492 kts | 288° |
| 2026-04-17 23:36 | 0.54875 | 9.21354 | 31800 ft | 491 kts | 288° |
| 2026-04-17 23:37 | 0.57216 | 9.14961 | 31804 ft | 491 kts | 288° |
| 2026-04-17 23:37 | 0.59557 | 9.08564 | 31809 ft | 490 kts | 288° |
| 2026-04-17 23:38 | 0.61903 | 9.02151 | 31809 ft | 490 kts | 288° |
| 2026-04-17 23:38 | 0.64233 | 8.95785 | 31807 ft | 490 kts | 288° |
| 2026-04-17 23:39 | 0.66563 | 8.89416 | 31807 ft | 490 kts | 288° |
| 2026-04-17 23:39 | 0.68913 | 8.82994 | 31806 ft | 491 kts | 288° |
| 2026-04-17 23:40 | 0.71252 | 8.76599 | 31807 ft | 492 kts | 288° |
| 2026-04-17 23:40 | 0.73598 | 8.70186 | 31806 ft | 490 kts | 288° |
| 2026-04-17 23:41 | 0.75936 | 8.63795 | 31807 ft | 490 kts | 288° |
| 2026-04-17 23:41 | 0.78262 | 8.57437 | 31807 ft | 490 kts | 288° |
| 2026-04-17 23:42 | 0.80602 | 8.51039 | 31805 ft | 490 kts | 288° |
| 2026-04-17 23:42 | 0.82944 | 8.44635 | 31800 ft | 491 kts | 288° |
| 2026-04-17 23:43 | 0.85285 | 8.38234 | 31795 ft | 491 kts | 288° |
| 2026-04-17 23:43 | 0.87623 | 8.31841 | 31792 ft | 493 kts | 288° |
| 2026-04-17 23:44 | 0.89970 | 8.25425 | 31787 ft | 492 kts | 288° |
| 2026-04-17 23:44 | 0.92317 | 8.19005 | 31788 ft | 492 kts | 288° |
| 2026-04-17 23:45 | 0.95842 | 8.09365 | 31788 ft | 492 kts | 288° |
| 2026-04-17 23:46 | 0.98170 | 8.02980 | 31787 ft | 493 kts | 288° |
| 2026-04-17 23:46 | 1.00519 | 7.96525 | 31788 ft | 494 kts | 288° |
| 2026-04-17 23:47 | 1.02855 | 7.90107 | 31792 ft | 494 kts | 288° |
| 2026-04-17 23:47 | 1.05209 | 7.83639 | 31791 ft | 494 kts | 288° |
| 2026-04-17 23:48 | 1.07550 | 7.77207 | 31793 ft | 494 kts | 288° |
| 2026-04-17 23:48 | 1.09903 | 7.70744 | 31794 ft | 494 kts | 288° |
| 2026-04-17 23:49 | 1.12252 | 7.64287 | 31793 ft | 494 kts | 288° |
| 2026-04-17 23:49 | 1.14584 | 7.57880 | 31798 ft | 494 kts | 288° |
| 2026-04-17 23:50 | 1.16935 | 7.51420 | 31803 ft | 494 kts | 288° |
| 2026-04-17 23:50 | 1.19284 | 7.44963 | 31804 ft | 494 kts | 288° |
| 2026-04-17 23:51 | 1.21614 | 7.38561 | 31804 ft | 494 kts | 288° |
| 2026-04-17 23:51 | 1.23967 | 7.32103 | 31805 ft | 495 kts | 288° |
| 2026-04-17 23:52 | 1.26317 | 7.25652 | 31805 ft | 494 kts | 288° |
| 2026-04-17 23:52 | 1.28668 | 7.19196 | 31806 ft | 494 kts | 288° |
| 2026-04-17 23:53 | 1.31006 | 7.12778 | 31806 ft | 495 kts | 288° |
| 2026-04-17 23:53 | 1.33354 | 7.06328 | 31806 ft | 494 kts | 288° |
| 2026-04-17 23:54 | 1.35705 | 6.99873 | 31806 ft | 494 kts | 288° |
| 2026-04-17 23:54 | 1.38045 | 6.93445 | 31806 ft | 494 kts | 288° |
| 2026-04-17 23:55 | 1.40392 | 6.86998 | 31807 ft | 495 kts | 288° |
| 2026-04-17 23:55 | 1.42747 | 6.80530 | 31807 ft | 495 kts | 288° |
| 2026-04-17 23:56 | 1.45084 | 6.74110 | 31807 ft | 495 kts | 288° |
| 2026-04-17 23:56 | 1.47435 | 6.67651 | 31806 ft | 495 kts | 288° |
| 2026-04-17 23:57 | 1.49786 | 6.61191 | 31806 ft | 495 kts | 288° |
| 2026-04-17 23:57 | 1.52133 | 6.54739 | 31806 ft | 494 kts | 288° |
| 2026-04-17 23:58 | 1.54485 | 6.48267 | 31807 ft | 494 kts | 288° |
| 2026-04-17 23:58 | 1.56829 | 6.41816 | 31806 ft | 495 kts | 288° |
| 2026-04-17 23:59 | 1.59163 | 6.35394 | 31807 ft | 490 kts | 288° |
| 2026-04-17 23:59 | 1.61500 | 6.28966 | 31810 ft | 496 kts | 288° |
| 2026-04-18 00:00 | 1.63877 | 6.22466 | 32269 ft | 501 kts | 288° |
| 2026-04-18 00:00 | 1.65068 | 6.19209 | 32923 ft | 496 kts | 288° |
| 2026-04-18 00:00 | 1.66251 | 6.15976 | 33613 ft | 492 kts | 288° |
| 2026-04-18 00:00 | 1.67427 | 6.12759 | 33799 ft | 495 kts | 288° |
| 2026-04-18 00:01 | 1.68609 | 6.09525 | 33806 ft | 493 kts | 288° |
| 2026-04-18 00:01 | 1.70941 | 6.03146 | 33808 ft | 491 kts | 288° |
| 2026-04-18 00:02 | 1.73284 | 5.96728 | 33805 ft | 491 kts | 288° |
| 2026-04-18 00:02 | 1.75602 | 5.90364 | 33815 ft | 491 kts | 288° |
| 2026-04-18 00:03 | 1.77941 | 5.83944 | 33824 ft | 491 kts | 288° |
| 2026-04-18 00:03 | 1.80274 | 5.77538 | 33829 ft | 491 kts | 288° |
| 2026-04-18 00:04 | 1.82600 | 5.71153 | 33830 ft | 491 kts | 288° |
| 2026-04-18 00:04 | 1.84939 | 5.64731 | 33829 ft | 491 kts | 288° |
| 2026-04-18 00:05 | 1.87270 | 5.58329 | 33827 ft | 491 kts | 288° |
| 2026-04-18 00:05 | 1.89606 | 5.51913 | 33826 ft | 491 kts | 288° |
| 2026-04-18 00:06 | 1.91932 | 5.45526 | 33827 ft | 491 kts | 288° |
| 2026-04-18 00:06 | 1.94264 | 5.39120 | 33825 ft | 491 kts | 288° |
| 2026-04-18 00:07 | 1.96606 | 5.32686 | 33813 ft | 491 kts | 288° |
| 2026-04-18 00:07 | 1.98924 | 5.26315 | 33808 ft | 491 kts | 288° |
| 2026-04-18 00:08 | 2.01261 | 5.19893 | 33808 ft | 491 kts | 288° |
| 2026-04-18 00:08 | 2.03592 | 5.13487 | 33809 ft | 491 kts | 288° |
| 2026-04-18 00:09 | 2.05917 | 5.07097 | 33808 ft | 491 kts | 288° |
| 2026-04-18 00:09 | 2.08255 | 5.00668 | 33808 ft | 492 kts | 288° |
| 2026-04-18 00:10 | 2.10590 | 4.94247 | 33805 ft | 492 kts | 288° |
| 2026-04-18 00:10 | 2.12921 | 4.87836 | 33804 ft | 491 kts | 288° |
| 2026-04-18 00:11 | 2.15252 | 4.81423 | 33804 ft | 491 kts | 288° |
| 2026-04-18 00:11 | 2.17575 | 4.75035 | 33806 ft | 490 kts | 288° |
| 2026-04-18 00:12 | 2.19897 | 4.68646 | 33808 ft | 490 kts | 288° |
| 2026-04-18 00:12 | 2.22214 | 4.62269 | 33805 ft | 490 kts | 288° |
| 2026-04-18 00:13 | 2.24538 | 4.55875 | 33807 ft | 490 kts | 288° |
| 2026-04-18 00:13 | 2.26859 | 4.49486 | 33813 ft | 491 kts | 288° |
| 2026-04-18 00:14 | 2.29185 | 4.43083 | 33811 ft | 491 kts | 288° |
| 2026-04-18 00:14 | 2.31510 | 4.36680 | 33804 ft | 491 kts | 288° |
| 2026-04-18 00:15 | 2.33847 | 4.30245 | 33797 ft | 490 kts | 288° |
| 2026-04-18 00:15 | 2.36173 | 4.23838 | 33796 ft | 490 kts | 288° |
| 2026-04-18 00:16 | 2.38478 | 4.17489 | 33793 ft | 489 kts | 288° |
| 2026-04-18 00:16 | 2.40798 | 4.11096 | 33797 ft | 490 kts | 288° |
| 2026-04-18 00:17 | 2.43119 | 4.04701 | 33803 ft | 490 kts | 288° |
| 2026-04-18 00:17 | 2.45448 | 3.98282 | 33807 ft | 491 kts | 288° |
| 2026-04-18 00:18 | 2.47762 | 3.91904 | 33809 ft | 491 kts | 288° |
| 2026-04-18 00:18 | 2.50096 | 3.85468 | 33808 ft | 490 kts | 288° |
| 2026-04-18 00:19 | 2.52399 | 3.79118 | 33806 ft | 489 kts | 288° |
| 2026-04-18 00:19 | 2.54719 | 3.72720 | 33806 ft | 489 kts | 288° |
| 2026-04-18 00:20 | 2.57034 | 3.66335 | 33807 ft | 489 kts | 288° |
| 2026-04-18 00:20 | 2.59353 | 3.59938 | 33808 ft | 490 kts | 288° |
| 2026-04-18 00:21 | 2.61662 | 3.53565 | 33806 ft | 490 kts | 288° |
| 2026-04-18 00:21 | 2.63983 | 3.47161 | 33807 ft | 491 kts | 288° |
| 2026-04-18 00:22 | 2.66310 | 3.40737 | 33807 ft | 490 kts | 288° |
| 2026-04-18 00:22 | 2.68628 | 3.34339 | 33811 ft | 490 kts | 288° |
| 2026-04-18 00:23 | 2.70940 | 3.27954 | 33812 ft | 489 kts | 288° |
| 2026-04-18 00:23 | 2.73258 | 3.21553 | 33812 ft | 490 kts | 288° |
| 2026-04-18 00:24 | 2.75571 | 3.15162 | 33811 ft | 490 kts | 288° |
| 2026-04-18 00:24 | 2.77888 | 3.08763 | 33818 ft | 490 kts | 288° |
| 2026-04-18 00:25 | 2.80196 | 3.02383 | 33824 ft | 490 kts | 288° |
| 2026-04-18 00:25 | 2.82516 | 2.95971 | 33824 ft | 490 kts | 288° |
| 2026-04-18 00:26 | 2.84825 | 2.89587 | 33821 ft | 490 kts | 288° |
| 2026-04-18 00:26 | 2.87144 | 2.83174 | 33816 ft | 488 kts | 288° |
| 2026-04-18 00:27 | 2.89445 | 2.76812 | 33807 ft | 489 kts | 288° |
| 2026-04-18 00:27 | 2.91748 | 2.70442 | 33807 ft | 488 kts | 288° |
| 2026-04-18 00:28 | 2.94063 | 2.64037 | 33808 ft | 488 kts | 288° |
| 2026-04-18 00:28 | 2.96371 | 2.57652 | 33808 ft | 488 kts | 288° |
| 2026-04-18 00:29 | 2.98661 | 2.51316 | 33808 ft | 488 kts | 288° |
| 2026-04-18 00:29 | 3.00974 | 2.44912 | 33808 ft | 488 kts | 288° |
| 2026-04-18 00:30 | 3.03273 | 2.38547 | 33806 ft | 486 kts | 288° |
| 2026-04-18 00:30 | 3.05560 | 2.32212 | 33809 ft | 487 kts | 287° |
| 2026-04-18 00:31 | 3.07846 | 2.25880 | 33810 ft | 485 kts | 288° |
| 2026-04-18 00:31 | 3.10132 | 2.19546 | 33808 ft | 485 kts | 288° |
| 2026-04-18 00:32 | 3.12431 | 2.13175 | 33804 ft | 485 kts | 288° |
| 2026-04-18 00:32 | 3.14703 | 2.06879 | 33804 ft | 484 kts | 287° |
| 2026-04-18 00:33 | 3.16993 | 2.00529 | 33806 ft | 486 kts | 287° |
| 2026-04-18 00:33 | 3.19282 | 1.94183 | 33804 ft | 485 kts | 287° |
| 2026-04-18 00:34 | 3.21570 | 1.87836 | 33804 ft | 484 kts | 288° |
| 2026-04-18 00:34 | 3.23847 | 1.81519 | 33813 ft | 484 kts | 287° |
| 2026-04-18 00:35 | 3.26130 | 1.75185 | 33819 ft | 483 kts | 288° |
| 2026-04-18 00:35 | 3.28392 | 1.68908 | 33822 ft | 483 kts | 288° |
| 2026-04-18 00:36 | 3.30663 | 1.62603 | 33825 ft | 483 kts | 288° |
| 2026-04-18 00:36 | 3.32943 | 1.56274 | 33824 ft | 483 kts | 288° |
| 2026-04-18 00:37 | 3.35217 | 1.49956 | 33825 ft | 484 kts | 288° |
| 2026-04-18 00:37 | 3.37499 | 1.43618 | 33816 ft | 483 kts | 288° |
| 2026-04-18 00:38 | 3.39771 | 1.37306 | 33805 ft | 483 kts | 288° |
| 2026-04-18 00:38 | 3.42042 | 1.30995 | 33807 ft | 483 kts | 288° |
| 2026-04-18 00:39 | 3.44312 | 1.24685 | 33806 ft | 483 kts | 288° |
| 2026-04-18 00:39 | 3.46586 | 1.18363 | 33806 ft | 483 kts | 288° |
| 2026-04-18 00:40 | 3.48866 | 1.12021 | 33807 ft | 484 kts | 288° |
| 2026-04-18 00:40 | 3.51128 | 1.05729 | 33808 ft | 484 kts | 288° |
| 2026-04-18 00:41 | 3.53402 | 0.99402 | 33806 ft | 483 kts | 288° |
| 2026-04-18 00:41 | 3.55672 | 0.93085 | 33807 ft | 483 kts | 288° |
| 2026-04-18 00:42 | 3.57950 | 0.86745 | 33810 ft | 483 kts | 288° |
| 2026-04-18 00:42 | 3.60225 | 0.80411 | 33807 ft | 484 kts | 288° |
| 2026-04-18 00:43 | 3.62486 | 0.74115 | 33807 ft | 484 kts | 288° |
| 2026-04-18 00:43 | 3.64759 | 0.67783 | 33808 ft | 484 kts | 288° |
| 2026-04-18 00:44 | 3.67040 | 0.61430 | 33809 ft | 485 kts | 288° |
| 2026-04-18 00:44 | 3.69322 | 0.55067 | 33809 ft | 485 kts | 288° |
| 2026-04-18 00:45 | 3.71594 | 0.48733 | 33813 ft | 485 kts | 288° |
| 2026-04-18 00:45 | 3.73872 | 0.42380 | 33812 ft | 485 kts | 288° |
| 2026-04-18 00:46 | 3.76149 | 0.36030 | 33812 ft | 486 kts | 288° |
| 2026-04-18 00:46 | 3.78438 | 0.29643 | 33818 ft | 486 kts | 288° |
| 2026-04-18 00:47 | 3.80713 | 0.23296 | 33827 ft | 486 kts | 288° |
| 2026-04-18 00:47 | 3.82991 | 0.16937 | 33828 ft | 486 kts | 288° |
| 2026-04-18 00:48 | 3.85261 | 0.10601 | 33828 ft | 486 kts | 288° |
| 2026-04-18 00:48 | 3.87552 | 0.04202 | 33820 ft | 487 kts | 288° |
| 2026-04-18 00:49 | 3.90974 | -0.05356 | 33808 ft | 487 kts | 288° |
| 2026-04-18 00:49 | 3.93251 | -0.11721 | 33808 ft | 487 kts | 288° |
| 2026-04-18 00:50 | 3.95531 | -0.18094 | 33807 ft | 487 kts | 288° |
| 2026-04-18 00:50 | 3.97806 | -0.24455 | 33807 ft | 486 kts | 288° |
| 2026-04-18 00:51 | 4.00075 | -0.30803 | 33807 ft | 487 kts | 288° |
| 2026-04-18 00:51 | 4.02349 | -0.37185 | 33808 ft | 487 kts | 288° |
| 2026-04-18 00:52 | 4.04619 | -0.43562 | 33808 ft | 487 kts | 288° |
| 2026-04-18 00:52 | 4.06887 | -0.49935 | 33808 ft | 487 kts | 288° |
| 2026-04-18 00:53 | 4.09149 | -0.56290 | 33807 ft | 486 kts | 288° |
| 2026-04-18 00:53 | 4.11422 | -0.62680 | 33804 ft | 486 kts | 288° |
| 2026-04-18 00:54 | 4.13686 | -0.69046 | 33805 ft | 486 kts | 288° |
| 2026-04-18 00:54 | 4.15956 | -0.75433 | 33806 ft | 486 kts | 288° |
| 2026-04-18 00:55 | 4.18208 | -0.81768 | 33806 ft | 486 kts | 288° |
| 2026-04-18 00:55 | 4.20477 | -0.88153 | 33805 ft | 486 kts | 288° |
| 2026-04-18 00:56 | 4.22743 | -0.94534 | 33805 ft | 486 kts | 288° |
| 2026-04-18 00:56 | 4.24995 | -1.00876 | 33806 ft | 486 kts | 288° |
| 2026-04-18 00:57 | 4.27261 | -1.07257 | 33805 ft | 486 kts | 288° |
| 2026-04-18 00:57 | 4.29523 | -1.13632 | 33806 ft | 485 kts | 288° |
| 2026-04-18 00:58 | 4.31774 | -1.19974 | 33806 ft | 485 kts | 288° |
| 2026-04-18 00:58 | 4.34032 | -1.26341 | 33807 ft | 485 kts | 288° |
| 2026-04-18 00:59 | 4.36287 | -1.32701 | 33806 ft | 484 kts | 288° |
| 2026-04-18 00:59 | 4.38535 | -1.39042 | 33803 ft | 484 kts | 288° |
| 2026-04-18 01:00 | 4.40782 | -1.45382 | 33801 ft | 484 kts | 288° |
| 2026-04-18 01:00 | 4.42978 | -1.51755 | 33804 ft | 484 kts | 287° |
| 2026-04-18 01:01 | 4.45085 | -1.58136 | 33805 ft | 484 kts | 287° |
| 2026-04-18 01:01 | 4.47202 | -1.64531 | 33805 ft | 483 kts | 287° |
| 2026-04-18 01:02 | 4.49309 | -1.70889 | 33807 ft | 483 kts | 287° |
| 2026-04-18 01:02 | 4.51427 | -1.77276 | 33806 ft | 483 kts | 287° |
| 2026-04-18 01:03 | 4.53621 | -1.83608 | 33807 ft | 483 kts | 288° |
| 2026-04-18 01:03 | 4.55923 | -1.89970 | 33807 ft | 483 kts | 288° |
| 2026-04-18 01:04 | 4.58196 | -1.96270 | 33807 ft | 483 kts | 288° |
| 2026-04-18 01:04 | 4.60470 | -2.02589 | 33806 ft | 484 kts | 288° |
| 2026-04-18 01:05 | 4.62753 | -2.08937 | 33807 ft | 483 kts | 288° |
| 2026-04-18 01:05 | 4.65017 | -2.15237 | 33807 ft | 483 kts | 288° |
| 2026-04-18 01:06 | 4.67281 | -2.21541 | 33807 ft | 482 kts | 288° |
| 2026-04-18 01:06 | 4.69552 | -2.27868 | 33806 ft | 483 kts | 288° |
| 2026-04-18 01:07 | 4.71821 | -2.34193 | 33806 ft | 483 kts | 288° |
| 2026-04-18 01:07 | 4.74086 | -2.40508 | 33806 ft | 483 kts | 288° |
| 2026-04-18 01:08 | 4.76359 | -2.46850 | 33806 ft | 483 kts | 288° |
| 2026-04-18 01:08 | 4.78613 | -2.53139 | 33807 ft | 483 kts | 288° |
| 2026-04-18 01:09 | 4.80884 | -2.59474 | 33805 ft | 482 kts | 288° |
| 2026-04-18 01:09 | 4.83151 | -2.65803 | 33798 ft | 482 kts | 288° |
| 2026-04-18 01:10 | 4.85404 | -2.72097 | 33799 ft | 482 kts | 288° |
| 2026-04-18 01:10 | 4.87666 | -2.78415 | 33798 ft | 482 kts | 288° |
| 2026-04-18 01:11 | 4.89927 | -2.84734 | 33792 ft | 482 kts | 288° |
| 2026-04-18 01:11 | 4.92199 | -2.91087 | 33793 ft | 483 kts | 288° |
| 2026-04-18 01:12 | 4.94446 | -2.97371 | 33792 ft | 483 kts | 288° |
| 2026-04-18 01:12 | 4.96712 | -3.03696 | 33799 ft | 482 kts | 288° |
| 2026-04-18 01:13 | 4.98993 | -3.10036 | 33806 ft | 483 kts | 288° |
| 2026-04-18 01:13 | 5.01271 | -3.16373 | 33805 ft | 482 kts | 288° |
| 2026-04-18 01:14 | 5.03526 | -3.22651 | 33808 ft | 482 kts | 288° |
| 2026-04-18 01:14 | 5.05795 | -3.28970 | 33809 ft | 482 kts | 288° |
| 2026-04-18 01:15 | 5.08067 | -3.35299 | 33807 ft | 482 kts | 288° |
| 2026-04-18 01:15 | 5.10343 | -3.41641 | 33808 ft | 482 kts | 288° |
| 2026-04-18 01:16 | 5.12599 | -3.47929 | 33808 ft | 482 kts | 288° |
| 2026-04-18 01:16 | 5.14865 | -3.54247 | 33810 ft | 481 kts | 288° |
| 2026-04-18 01:17 | 5.17129 | -3.60563 | 33813 ft | 481 kts | 288° |
| 2026-04-18 01:17 | 5.19394 | -3.66883 | 33820 ft | 480 kts | 288° |
| 2026-04-18 01:18 | 5.21640 | -3.73153 | 33822 ft | 480 kts | 288° |
| 2026-04-18 01:18 | 5.23898 | -3.79459 | 33827 ft | 480 kts | 288° |
| 2026-04-18 01:19 | 5.26148 | -3.85745 | 33827 ft | 480 kts | 288° |
| 2026-04-18 01:19 | 5.28692 | -3.91953 | 33820 ft | 483 kts | 298° |
| 2026-04-18 01:20 | 5.32500 | -3.97504 | 33820 ft | 484 kts | 304° |
| 2026-04-18 01:20 | 5.36456 | -4.02922 | 33817 ft | 483 kts | 304° |
| 2026-04-18 01:21 | 5.40425 | -4.08362 | 33813 ft | 482 kts | 305° |
| 2026-04-18 01:21 | 5.44380 | -4.13787 | 33810 ft | 481 kts | 304° |
| 2026-04-18 01:22 | 5.48321 | -4.19194 | 33807 ft | 481 kts | 305° |
| 2026-04-18 01:22 | 5.52270 | -4.24615 | 33798 ft | 481 kts | 304° |
| 2026-04-18 01:23 | 5.56211 | -4.30026 | 33794 ft | 480 kts | 305° |
| 2026-04-18 01:23 | 5.60146 | -4.35431 | 33795 ft | 481 kts | 305° |
| 2026-04-18 01:24 | 5.64101 | -4.40866 | 33796 ft | 481 kts | 305° |
| 2026-04-18 01:24 | 5.68039 | -4.46278 | 33794 ft | 480 kts | 305° |
| 2026-04-18 01:25 | 5.71959 | -4.51666 | 33793 ft | 478 kts | 305° |
| 2026-04-18 01:25 | 5.75891 | -4.57072 | 33794 ft | 479 kts | 305° |
| 2026-04-18 01:26 | 5.79785 | -4.62428 | 33796 ft | 478 kts | 305° |
| 2026-04-18 01:26 | 5.83695 | -4.67808 | 33807 ft | 476 kts | 306° |
| 2026-04-18 01:27 | 5.87602 | -4.73184 | 33810 ft | 476 kts | 306° |
| 2026-04-18 01:27 | 5.91507 | -4.78559 | 33812 ft | 477 kts | 306° |
| 2026-04-18 01:28 | 5.95443 | -4.83978 | 33812 ft | 477 kts | 306° |
| 2026-04-18 01:28 | 5.99353 | -4.89363 | 33814 ft | 478 kts | 306° |
| 2026-04-18 01:29 | 6.03242 | -4.94721 | 33814 ft | 477 kts | 306° |
| 2026-04-18 01:29 | 6.07153 | -5.00110 | 33813 ft | 476 kts | 306° |
| 2026-04-18 01:30 | 6.11046 | -5.05477 | 33816 ft | 475 kts | 306° |
| 2026-04-18 01:30 | 6.14953 | -5.10864 | 33819 ft | 477 kts | 306° |
| 2026-04-18 01:31 | 6.18837 | -5.16221 | 33823 ft | 476 kts | 306° |
| 2026-04-18 01:31 | 6.22752 | -5.21623 | 33826 ft | 475 kts | 306° |
| 2026-04-18 01:32 | 6.26637 | -5.26986 | 33829 ft | 475 kts | 306° |
| 2026-04-18 01:32 | 6.30530 | -5.32361 | 33827 ft | 474 kts | 306° |
| 2026-04-18 01:33 | 6.34391 | -5.37692 | 33824 ft | 474 kts | 306° |
| 2026-04-18 01:33 | 6.38274 | -5.43057 | 33819 ft | 474 kts | 306° |
| 2026-04-18 01:34 | 6.42155 | -5.48419 | 33817 ft | 473 kts | 306° |
| 2026-04-18 01:34 | 6.46014 | -5.53753 | 33815 ft | 474 kts | 306° |
| 2026-04-18 01:35 | 6.49888 | -5.59109 | 33817 ft | 472 kts | 306° |
| 2026-04-18 01:35 | 6.53753 | -5.64455 | 33814 ft | 471 kts | 306° |
| 2026-04-18 01:36 | 6.57591 | -5.69764 | 33818 ft | 472 kts | 306° |
| 2026-04-18 01:36 | 6.61460 | -5.75119 | 33820 ft | 472 kts | 306° |
| 2026-04-18 01:37 | 6.65324 | -5.80468 | 33820 ft | 470 kts | 305° |
| 2026-04-18 01:37 | 6.69159 | -5.85778 | 33822 ft | 470 kts | 305° |
| 2026-04-18 01:38 | 6.72993 | -5.91089 | 33823 ft | 469 kts | 305° |
| 2026-04-18 01:38 | 6.76816 | -5.96410 | 33824 ft | 469 kts | 304° |
| 2026-04-18 01:39 | 6.80552 | -6.01804 | 33826 ft | 469 kts | 304° |
| 2026-04-18 01:39 | 6.84267 | -6.07169 | 33827 ft | 469 kts | 304° |
| 2026-04-18 01:40 | 6.88018 | -6.12583 | 33821 ft | 469 kts | 304° |
| 2026-04-18 01:40 | 6.91735 | -6.17945 | 33825 ft | 469 kts | 304° |
| 2026-04-18 01:41 | 6.95450 | -6.23305 | 33826 ft | 467 kts | 304° |
| 2026-04-18 01:41 | 6.99165 | -6.28665 | 33827 ft | 468 kts | 304° |
| 2026-04-18 01:42 | 7.02893 | -6.34046 | 33829 ft | 466 kts | 304° |
| 2026-04-18 01:42 | 7.06613 | -6.39416 | 33836 ft | 467 kts | 304° |
| 2026-04-18 01:43 | 7.10309 | -6.44754 | 33838 ft | 466 kts | 304° |
| 2026-04-18 01:43 | 7.14008 | -6.50096 | 33837 ft | 466 kts | 304° |
| 2026-04-18 01:44 | 7.17708 | -6.55442 | 33836 ft | 466 kts | 304° |
| 2026-04-18 01:44 | 7.21420 | -6.60809 | 33834 ft | 465 kts | 304° |
| 2026-04-18 01:45 | 7.25095 | -6.66123 | 33836 ft | 465 kts | 304° |
| 2026-04-18 01:45 | 7.28796 | -6.71478 | 33832 ft | 463 kts | 304° |
| 2026-04-18 01:46 | 7.32471 | -6.76794 | 33835 ft | 463 kts | 304° |
| 2026-04-18 01:46 | 7.36143 | -6.82110 | 33827 ft | 463 kts | 304° |
| 2026-04-18 01:47 | 7.39803 | -6.87408 | 33833 ft | 463 kts | 304° |
| 2026-04-18 01:47 | 7.43489 | -6.92747 | 33833 ft | 462 kts | 304° |
| 2026-04-18 01:48 | 7.47164 | -6.98072 | 33827 ft | 462 kts | 304° |
| 2026-04-18 01:48 | 7.50824 | -7.03377 | 33825 ft | 460 kts | 304° |
| 2026-04-18 01:49 | 7.54495 | -7.08699 | 33828 ft | 462 kts | 304° |
| 2026-04-18 01:49 | 7.58145 | -7.13993 | 33834 ft | 460 kts | 304° |
| 2026-04-18 01:50 | 7.61802 | -7.19299 | 33843 ft | 460 kts | 304° |
| 2026-04-18 01:50 | 7.65424 | -7.24556 | 33849 ft | 458 kts | 304° |
| 2026-04-18 01:51 | 7.69066 | -7.29843 | 33857 ft | 458 kts | 304° |
| 2026-04-18 01:51 | 7.72722 | -7.35154 | 33884 ft | 460 kts | 304° |
| 2026-04-18 01:52 | 7.76351 | -7.40425 | 33904 ft | 459 kts | 304° |
| 2026-04-18 01:52 | 7.79999 | -7.45729 | 33907 ft | 460 kts | 304° |
| 2026-04-18 01:53 | 7.83648 | -7.51034 | 33912 ft | 458 kts | 304° |
| 2026-04-18 01:54 | 7.89093 | -7.58953 | 33891 ft | 457 kts | 304° |
| 2026-04-18 01:54 | 7.92721 | -7.64233 | 33871 ft | 460 kts | 304° |
| 2026-04-18 01:55 | 7.96369 | -7.69544 | 33868 ft | 459 kts | 304° |
| 2026-04-18 01:55 | 7.99980 | -7.74803 | 33860 ft | 458 kts | 304° |
| 2026-04-18 01:56 | 8.03619 | -7.80103 | 33860 ft | 460 kts | 304° |
| 2026-04-18 01:56 | 8.07256 | -7.85405 | 33860 ft | 459 kts | 304° |
| 2026-04-18 01:57 | 8.10879 | -7.90686 | 33866 ft | 458 kts | 304° |
| 2026-04-18 01:57 | 8.14488 | -7.95950 | 33868 ft | 458 kts | 304° |
| 2026-04-18 01:58 | 8.18113 | -8.01239 | 33865 ft | 457 kts | 304° |
| 2026-04-18 01:58 | 8.21729 | -8.06516 | 33870 ft | 456 kts | 304° |
| 2026-04-18 01:59 | 8.25328 | -8.11771 | 33878 ft | 458 kts | 304° |
| 2026-04-18 01:59 | 8.28950 | -8.17060 | 33870 ft | 457 kts | 304° |
| 2026-04-18 02:00 | 8.32573 | -8.22355 | 33875 ft | 456 kts | 304° |
| 2026-04-18 02:00 | 8.36172 | -8.27614 | 33882 ft | 455 kts | 304° |
| 2026-04-18 02:01 | 8.39755 | -8.32843 | 33885 ft | 456 kts | 304° |
| 2026-04-18 02:01 | 8.43375 | -8.38123 | 33887 ft | 455 kts | 304° |
| 2026-04-18 02:02 | 8.46979 | -8.43383 | 33895 ft | 456 kts | 304° |
| 2026-04-18 02:02 | 8.50568 | -8.48621 | 33905 ft | 454 kts | 304° |
| 2026-04-18 02:03 | 8.54176 | -8.53891 | 33915 ft | 456 kts | 304° |
| 2026-04-18 02:03 | 8.57762 | -8.59130 | 33920 ft | 456 kts | 304° |
| 2026-04-18 02:04 | 8.61363 | -8.64392 | 33921 ft | 455 kts | 304° |
| 2026-04-18 02:04 | 8.64950 | -8.69637 | 33930 ft | 455 kts | 303° |
| 2026-04-18 02:05 | 8.68540 | -8.74889 | 33922 ft | 454 kts | 303° |
| 2026-04-18 02:05 | 8.72122 | -8.80131 | 33922 ft | 453 kts | 303° |
| 2026-04-18 02:06 | 8.75684 | -8.85345 | 33929 ft | 454 kts | 303° |
| 2026-04-18 02:06 | 8.79268 | -8.90593 | 33937 ft | 452 kts | 303° |
| 2026-04-18 02:07 | 8.82857 | -8.95852 | 33930 ft | 453 kts | 304° |
| 2026-04-18 02:07 | 8.86423 | -9.01076 | 33931 ft | 452 kts | 303° |
| 2026-04-18 02:08 | 8.90002 | -9.06325 | 33938 ft | 455 kts | 303° |
| 2026-04-18 02:08 | 8.93583 | -9.11577 | 33931 ft | 452 kts | 303° |
| 2026-04-18 02:09 | 8.97160 | -9.16827 | 33931 ft | 454 kts | 304° |
| 2026-04-18 02:09 | 9.00734 | -9.22073 | 33934 ft | 451 kts | 303° |
| 2026-04-18 02:10 | 9.04278 | -9.27276 | 33938 ft | 450 kts | 303° |
| 2026-04-18 02:10 | 9.07927 | -9.32450 | 33944 ft | 452 kts | 305° |
| 2026-04-18 02:11 | 9.11630 | -9.37561 | 33947 ft | 451 kts | 305° |
| 2026-04-18 02:11 | 9.15337 | -9.42691 | 33946 ft | 451 kts | 305° |
| 2026-04-18 02:12 | 9.19041 | -9.47827 | 33945 ft | 451 kts | 305° |
| 2026-04-18 02:12 | 9.22740 | -9.52961 | 33947 ft | 452 kts | 305° |
| 2026-04-18 02:13 | 9.26436 | -9.58095 | 33930 ft | 451 kts | 305° |
| 2026-04-18 02:13 | 9.30136 | -9.63237 | 33909 ft | 451 kts | 305° |
| 2026-04-18 02:14 | 9.33812 | -9.68347 | 33900 ft | 451 kts | 305° |
| 2026-04-18 02:14 | 9.37510 | -9.73492 | 33889 ft | 450 kts | 305° |
| 2026-04-18 02:15 | 9.41190 | -9.78613 | 33883 ft | 450 kts | 305° |
| 2026-04-18 02:15 | 9.44877 | -9.83747 | 33879 ft | 449 kts | 305° |
| 2026-04-18 02:16 | 9.48553 | -9.88867 | 33878 ft | 451 kts | 305° |
| 2026-04-18 02:16 | 9.52216 | -9.93971 | 33876 ft | 449 kts | 305° |
| 2026-04-18 02:17 | 9.55890 | -9.99092 | 33874 ft | 449 kts | 305° |
| 2026-04-18 02:17 | 9.59567 | -10.04219 | 33869 ft | 449 kts | 305° |
| 2026-04-18 02:18 | 9.63231 | -10.09343 | 33865 ft | 449 kts | 305° |
| 2026-04-18 02:18 | 9.66892 | -10.14476 | 33870 ft | 450 kts | 304° |
| 2026-04-18 02:19 | 9.70546 | -10.19599 | 33870 ft | 448 kts | 305° |
| 2026-04-18 02:19 | 9.74202 | -10.24727 | 33878 ft | 449 kts | 305° |
| 2026-04-18 02:20 | 9.77853 | -10.29851 | 33877 ft | 450 kts | 305° |
| 2026-04-18 02:20 | 9.81509 | -10.34983 | 33861 ft | 448 kts | 305° |
| 2026-04-18 02:21 | 9.85152 | -10.40099 | 33862 ft | 447 kts | 305° |
| 2026-04-18 02:21 | 9.88774 | -10.45188 | 33857 ft | 447 kts | 305° |
| 2026-04-18 02:22 | 9.92411 | -10.50301 | 33850 ft | 447 kts | 305° |
| 2026-04-18 02:22 | 9.96054 | -10.55423 | 33851 ft | 447 kts | 305° |
| 2026-04-18 02:23 | 9.99693 | -10.60543 | 33857 ft | 449 kts | 304° |
| 2026-04-18 02:23 | 10.03334 | -10.65667 | 33859 ft | 447 kts | 305° |
| 2026-04-18 02:24 | 10.06965 | -10.70780 | 33868 ft | 445 kts | 304° |
| 2026-04-18 02:24 | 10.10525 | -10.75933 | 33867 ft | 445 kts | 301° |
| 2026-04-18 02:25 | 10.13744 | -10.81317 | 33875 ft | 446 kts | 301° |
| 2026-04-18 02:25 | 10.16957 | -10.86674 | 33873 ft | 446 kts | 301° |
| 2026-04-18 02:26 | 10.20195 | -10.92043 | 33880 ft | 447 kts | 301° |
| 2026-04-18 02:26 | 10.23442 | -10.97416 | 33878 ft | 445 kts | 301° |
| 2026-04-18 02:27 | 10.26952 | -11.02589 | 33883 ft | 446 kts | 306° |
| 2026-04-18 02:27 | 10.30733 | -11.07565 | 33892 ft | 446 kts | 307° |
| 2026-04-18 02:28 | 10.34525 | -11.12558 | 33904 ft | 446 kts | 307° |
| 2026-04-18 02:28 | 10.38314 | -11.17553 | 33907 ft | 445 kts | 307° |
| 2026-04-18 02:29 | 10.42079 | -11.22518 | 33908 ft | 445 kts | 307° |
| 2026-04-18 02:29 | 10.45853 | -11.27498 | 33909 ft | 445 kts | 306° |
| 2026-04-18 02:30 | 10.49639 | -11.32495 | 33907 ft | 445 kts | 306° |
| 2026-04-18 02:30 | 10.53388 | -11.37448 | 33912 ft | 444 kts | 306° |
| 2026-04-18 02:31 | 10.57149 | -11.42417 | 33918 ft | 443 kts | 306° |
| 2026-04-18 02:31 | 10.60914 | -11.47395 | 33916 ft | 444 kts | 306° |
| 2026-04-18 02:32 | 10.64664 | -11.52355 | 33918 ft | 443 kts | 307° |
| 2026-04-18 02:32 | 10.68389 | -11.57354 | 33912 ft | 443 kts | 305° |
| 2026-04-18 02:33 | 10.72003 | -11.62419 | 33908 ft | 443 kts | 305° |
| 2026-04-18 02:33 | 10.75615 | -11.67476 | 33914 ft | 441 kts | 305° |
| 2026-04-18 02:34 | 10.79220 | -11.72519 | 33916 ft | 442 kts | 305° |
| 2026-04-18 02:34 | 10.82840 | -11.77580 | 33925 ft | 442 kts | 305° |
| 2026-04-18 02:35 | 10.86463 | -11.82648 | 33945 ft | 441 kts | 305° |
| 2026-04-18 02:35 | 10.90057 | -11.87674 | 33947 ft | 440 kts | 305° |
| 2026-04-18 02:36 | 10.93655 | -11.92710 | 33946 ft | 439 kts | 305° |
| 2026-04-18 02:36 | 10.97239 | -11.97727 | 33949 ft | 439 kts | 305° |
| 2026-04-18 02:37 | 11.00836 | -12.02765 | 33949 ft | 439 kts | 304° |
| 2026-04-18 02:37 | 11.04431 | -12.07803 | 33952 ft | 439 kts | 305° |
| 2026-04-18 02:38 | 11.08025 | -12.12841 | 33954 ft | 440 kts | 305° |
| 2026-04-18 02:38 | 11.11604 | -12.17860 | 33972 ft | 439 kts | 305° |
| 2026-04-18 02:39 | 11.15188 | -12.22890 | 33990 ft | 439 kts | 304° |
| 2026-04-18 02:39 | 11.18774 | -12.27926 | 34006 ft | 438 kts | 304° |
| 2026-04-18 02:40 | 11.22333 | -12.32923 | 34009 ft | 439 kts | 304° |
| 2026-04-18 02:40 | 11.25904 | -12.37958 | 34003 ft | 438 kts | 304° |
| 2026-04-18 02:41 | 11.29387 | -12.43067 | 33996 ft | 439 kts | 303° |
| 2026-04-18 02:41 | 11.32865 | -12.48173 | 33991 ft | 438 kts | 303° |
| 2026-04-18 02:42 | 11.36340 | -12.53270 | 33974 ft | 439 kts | 303° |
| 2026-04-18 02:42 | 11.39809 | -12.58359 | 33948 ft | 438 kts | 303° |
| 2026-04-18 02:43 | 11.43289 | -12.63464 | 33915 ft | 439 kts | 303° |
| 2026-04-18 02:43 | 11.46777 | -12.68582 | 33901 ft | 439 kts | 303° |
| 2026-04-18 02:44 | 11.50255 | -12.73689 | 33876 ft | 438 kts | 303° |
| 2026-04-18 02:44 | 11.53707 | -12.78760 | 33858 ft | 439 kts | 303° |
| 2026-04-18 02:45 | 11.57203 | -12.83897 | 33856 ft | 438 kts | 303° |
| 2026-04-18 02:45 | 11.60675 | -12.89002 | 33852 ft | 439 kts | 303° |
| 2026-04-18 02:46 | 11.64147 | -12.94108 | 33846 ft | 438 kts | 303° |
| 2026-04-18 02:46 | 11.67618 | -12.99216 | 33834 ft | 438 kts | 303° |
| 2026-04-18 02:47 | 11.71084 | -13.04320 | 33828 ft | 438 kts | 303° |
| 2026-04-18 02:47 | 11.74550 | -13.09428 | 33822 ft | 439 kts | 303° |
| 2026-04-18 02:48 | 11.78029 | -13.14556 | 33810 ft | 439 kts | 303° |
| 2026-04-18 02:48 | 11.81779 | -13.19489 | 33808 ft | 441 kts | 307° |
| 2026-04-18 02:49 | 11.85657 | -13.24299 | 33806 ft | 441 kts | 307° |
| 2026-04-18 02:49 | 11.89536 | -13.29147 | 33810 ft | 441 kts | 307° |
| 2026-04-18 02:50 | 11.93411 | -13.34012 | 33815 ft | 441 kts | 307° |
| 2026-04-18 02:50 | 11.97280 | -13.38879 | 33810 ft | 439 kts | 307° |
| 2026-04-18 02:51 | 12.01118 | -13.43717 | 33805 ft | 441 kts | 307° |
| 2026-04-18 02:51 | 12.04985 | -13.48595 | 33799 ft | 440 kts | 307° |
| 2026-04-18 02:52 | 12.08821 | -13.53438 | 33789 ft | 440 kts | 307° |
| 2026-04-18 02:52 | 12.12687 | -13.58322 | 33790 ft | 441 kts | 307° |
| 2026-04-18 02:53 | 12.16542 | -13.63195 | 33789 ft | 441 kts | 307° |
| 2026-04-18 02:53 | 12.20395 | -13.68067 | 33796 ft | 441 kts | 307° |
| 2026-04-18 02:54 | 12.24249 | -13.72944 | 33793 ft | 440 kts | 307° |
| 2026-04-18 02:54 | 12.28047 | -13.77852 | 33787 ft | 438 kts | 303° |
| 2026-04-18 02:55 | 12.31497 | -13.82986 | 33786 ft | 439 kts | 302° |
| 2026-04-18 02:55 | 12.34950 | -13.88114 | 33786 ft | 437 kts | 303° |
| 2026-04-18 02:56 | 12.38390 | -13.93200 | 33787 ft | 438 kts | 303° |
| 2026-04-18 02:56 | 12.43584 | -14.00859 | 33782 ft | 436 kts | 303° |
| 2026-04-18 02:57 | 12.47058 | -14.05978 | 33780 ft | 437 kts | 303° |
| 2026-04-18 02:57 | 12.50513 | -14.11070 | 33779 ft | 436 kts | 302° |
| 2026-04-18 02:58 | 12.53976 | -14.16174 | 33775 ft | 436 kts | 302° |
| 2026-04-18 02:58 | 12.57429 | -14.21267 | 33776 ft | 435 kts | 302° |
| 2026-04-18 02:59 | 12.60879 | -14.26358 | 33771 ft | 436 kts | 303° |
| 2026-04-18 02:59 | 12.64337 | -14.31462 | 33769 ft | 436 kts | 302° |
| 2026-04-18 03:00 | 12.67786 | -14.36556 | 33767 ft | 436 kts | 302° |
| 2026-04-18 03:00 | 12.71220 | -14.41630 | 33762 ft | 435 kts | 302° |
| 2026-04-18 03:01 | 12.74672 | -14.46736 | 33760 ft | 436 kts | 303° |
| 2026-04-18 03:01 | 12.78132 | -14.51854 | 33761 ft | 435 kts | 303° |
| 2026-04-18 03:02 | 12.81565 | -14.56935 | 33755 ft | 434 kts | 302° |
| 2026-04-18 03:02 | 12.84980 | -14.61993 | 33763 ft | 434 kts | 302° |
| 2026-04-18 03:03 | 12.88420 | -14.67090 | 33786 ft | 434 kts | 302° |
| 2026-04-18 03:03 | 12.91832 | -14.72150 | 33782 ft | 433 kts | 302° |
| 2026-04-18 03:04 | 12.95261 | -14.77237 | 33780 ft | 432 kts | 302° |
| 2026-04-18 03:04 | 12.98673 | -14.82302 | 33776 ft | 433 kts | 302° |
| 2026-04-18 03:05 | 13.02105 | -14.87400 | 33772 ft | 432 kts | 302° |
| 2026-04-18 03:05 | 13.05518 | -14.92473 | 33773 ft | 432 kts | 302° |
| 2026-04-18 03:06 | 13.08927 | -14.97542 | 33768 ft | 432 kts | 302° |
| 2026-04-18 03:06 | 13.12326 | -15.02598 | 33772 ft | 432 kts | 302° |
| 2026-04-18 03:07 | 13.15738 | -15.07678 | 33771 ft | 432 kts | 302° |
| 2026-04-18 03:07 | 13.19130 | -15.12729 | 33769 ft | 431 kts | 302° |
| 2026-04-18 03:08 | 13.22387 | -15.17910 | 33767 ft | 429 kts | 300° |
| 2026-04-18 03:08 | 13.25559 | -15.23093 | 33766 ft | 430 kts | 300° |
| 2026-04-18 03:09 | 13.28725 | -15.28251 | 33766 ft | 430 kts | 300° |
| 2026-04-18 03:09 | 13.31911 | -15.33435 | 33764 ft | 428 kts | 300° |
| 2026-04-18 03:10 | 13.35108 | -15.38636 | 33763 ft | 429 kts | 300° |
| 2026-04-18 03:10 | 13.38289 | -15.43812 | 33764 ft | 430 kts | 300° |
| 2026-04-18 03:11 | 13.41463 | -15.48977 | 33761 ft | 428 kts | 300° |
| 2026-04-18 03:11 | 13.44642 | -15.54153 | 33762 ft | 428 kts | 300° |
| 2026-04-18 03:12 | 13.47805 | -15.59307 | 33766 ft | 432 kts | 300° |
| 2026-04-18 03:12 | 13.51081 | -15.64651 | 33768 ft | 452 kts | 300° |
| 2026-04-18 03:13 | 13.54470 | -15.70179 | 33782 ft | 459 kts | 300° |
| 2026-04-18 03:13 | 13.57864 | -15.75717 | 33773 ft | 456 kts | 300° |
| 2026-04-18 03:14 | 13.61227 | -15.81209 | 33767 ft | 456 kts | 300° |
| 2026-04-18 03:14 | 13.64591 | -15.86706 | 33766 ft | 455 kts | 300° |
| 2026-04-18 03:15 | 13.67955 | -15.92207 | 33769 ft | 455 kts | 300° |
| 2026-04-18 03:15 | 13.71306 | -15.97691 | 33775 ft | 454 kts | 300° |
| 2026-04-18 03:16 | 13.74671 | -16.03200 | 33776 ft | 454 kts | 300° |
| 2026-04-18 03:16 | 13.78021 | -16.08688 | 33778 ft | 452 kts | 300° |
| 2026-04-18 03:17 | 13.81355 | -16.14155 | 33780 ft | 453 kts | 300° |
| 2026-04-18 03:17 | 13.84685 | -16.19619 | 33778 ft | 451 kts | 300° |
| 2026-04-18 03:18 | 13.88031 | -16.25111 | 33777 ft | 451 kts | 300° |
| 2026-04-18 03:18 | 13.91367 | -16.30591 | 33776 ft | 453 kts | 300° |
| 2026-04-18 03:19 | 13.94654 | -16.35995 | 33774 ft | 452 kts | 300° |
| 2026-04-18 03:19 | 13.97979 | -16.41464 | 33771 ft | 453 kts | 300° |
| 2026-04-18 03:20 | 14.01323 | -16.46968 | 33771 ft | 452 kts | 300° |
| 2026-04-18 03:20 | 14.04644 | -16.52438 | 33770 ft | 451 kts | 300° |
| 2026-04-18 03:21 | 14.07981 | -16.57939 | 33769 ft | 450 kts | 300° |
| 2026-04-18 03:21 | 14.09601 | -16.60609 | 33763 ft | 435 kts | 300° |
| 2026-04-18 03:21 | 14.11177 | -16.63206 | 33772 ft | 419 kts | 300° |
| 2026-04-18 03:22 | 14.12692 | -16.65704 | 33773 ft | 403 kts | 300° |
| 2026-04-18 03:22 | 14.14149 | -16.68108 | 33783 ft | 388 kts | 300° |
| 2026-04-18 03:22 | 14.15548 | -16.70416 | 33785 ft | 372 kts | 300° |
| 2026-04-18 03:22 | 14.16879 | -16.72614 | 33782 ft | 357 kts | 300° |
| 2026-04-18 03:23 | 14.18175 | -16.74755 | 33781 ft | 343 kts | 300° |
| 2026-04-18 03:23 | 14.19417 | -16.76809 | 33793 ft | 343 kts | 299° |
| 2026-04-18 03:23 | 14.21979 | -16.81046 | 33792 ft | 349 kts | 300° |
| 2026-04-18 03:24 | 14.24554 | -16.85289 | 33791 ft | 347 kts | 300° |
| 2026-04-18 03:24 | 14.27090 | -16.89469 | 33804 ft | 345 kts | 300° |
| 2026-04-18 03:25 | 14.29643 | -16.93682 | 33808 ft | 346 kts | 299° |
| 2026-04-18 03:25 | 14.32188 | -16.97883 | 33809 ft | 346 kts | 299° |
| 2026-04-18 03:26 | 14.34725 | -17.02073 | 33810 ft | 345 kts | 300° |
| 2026-04-18 03:26 | 14.37278 | -17.06292 | 33811 ft | 345 kts | 300° |
| 2026-04-18 03:27 | 14.39770 | -17.10410 | 33799 ft | 332 kts | 299° |
| 2026-04-18 03:27 | 14.42188 | -17.14411 | 33807 ft | 329 kts | 299° |
| 2026-04-18 03:28 | 14.44602 | -17.18408 | 33799 ft | 328 kts | 299° |
| 2026-04-18 03:28 | 14.47020 | -17.22412 | 33799 ft | 330 kts | 299° |
| 2026-04-18 03:29 | 14.49453 | -17.26440 | 33791 ft | 329 kts | 299° |
| 2026-04-18 03:29 | 14.51860 | -17.30425 | 33795 ft | 328 kts | 299° |
| 2026-04-18 03:30 | 14.54283 | -17.34437 | 33794 ft | 328 kts | 299° |
| 2026-04-18 03:30 | 14.56694 | -17.38432 | 33799 ft | 329 kts | 299° |
| 2026-04-18 03:31 | 14.59104 | -17.42424 | 33794 ft | 328 kts | 299° |
| 2026-04-18 03:31 | 14.61521 | -17.46427 | 33795 ft | 329 kts | 299° |
| 2026-04-18 03:32 | 14.63959 | -17.50466 | 33797 ft | 329 kts | 299° |
| 2026-04-18 03:32 | 14.66374 | -17.54468 | 33795 ft | 329 kts | 299° |
| 2026-04-18 03:33 | 14.68781 | -17.58458 | 33797 ft | 329 kts | 299° |
| 2026-04-18 03:33 | 14.71205 | -17.62476 | 33792 ft | 329 kts | 299° |
| 2026-04-18 03:34 | 14.73632 | -17.66499 | 33813 ft | 330 kts | 299° |
| 2026-04-18 03:34 | 14.76044 | -17.70497 | 33804 ft | 330 kts | 299° |
| 2026-04-18 03:35 | 14.78472 | -17.74522 | 33806 ft | 329 kts | 299° |
| 2026-04-18 03:35 | 14.80902 | -17.78553 | 33804 ft | 330 kts | 299° |
| 2026-04-18 03:36 | 14.83313 | -17.82550 | 33802 ft | 330 kts | 299° |
| 2026-04-18 03:36 | 14.85739 | -17.86574 | 33803 ft | 328 kts | 299° |
| 2026-04-18 03:37 | 14.88147 | -17.90565 | 33805 ft | 330 kts | 299° |
| 2026-04-18 03:37 | 14.90583 | -17.94605 | 33801 ft | 329 kts | 299° |
| 2026-04-18 03:38 | 14.93000 | -17.98616 | 33808 ft | 329 kts | 299° |
| 2026-04-18 03:38 | 14.95422 | -18.02637 | 33815 ft | 331 kts | 299° |
| 2026-04-18 03:39 | 14.97848 | -18.06662 | 33818 ft | 328 kts | 298° |
| 2026-04-18 03:39 | 15.00242 | -18.10634 | 33820 ft | 328 kts | 299° |
| 2026-04-18 03:40 | 15.02664 | -18.14655 | 33816 ft | 326 kts | 298° |
| 2026-04-18 03:40 | 15.05065 | -18.18641 | 33815 ft | 327 kts | 299° |
| 2026-04-18 03:41 | 15.07471 | -18.22635 | 33812 ft | 328 kts | 299° |
| 2026-04-18 03:41 | 15.09888 | -18.26648 | 33810 ft | 328 kts | 299° |
| 2026-04-18 03:42 | 15.12290 | -18.30637 | 33815 ft | 327 kts | 299° |
| 2026-04-18 03:42 | 15.14709 | -18.34654 | 33806 ft | 328 kts | 299° |
| 2026-04-18 03:43 | 15.17123 | -18.38665 | 33804 ft | 328 kts | 299° |
| 2026-04-18 03:43 | 15.19527 | -18.42658 | 33798 ft | 328 kts | 298° |
| 2026-04-18 03:44 | 15.21950 | -18.46684 | 33795 ft | 329 kts | 298° |
| 2026-04-18 03:44 | 15.24350 | -18.50671 | 33795 ft | 327 kts | 298° |
| 2026-04-18 03:45 | 15.26773 | -18.54697 | 33792 ft | 327 kts | 298° |
| 2026-04-18 03:45 | 15.29179 | -18.58696 | 33797 ft | 328 kts | 298° |